Station info - map view · info · telemetry · weather · raw · status · beacons · messages · bulletins · browse · moving · my account
Callsign, ship name or locator: Clear       
It is possible to search using wildcards (*?) after a prefix. Example: OH*
APRS station NQ9F - show graphs
Map loading...
Mic-E message: Off duty
Location: 32°35.30' N 93°17.23' W - locator EM32IO51ME - show map - static map
1.9 miles South bearing 181° from Minden, Webster Parish, Louisiana, United States [?]
3.4 miles North bearing 9° from Sibley, Webster Parish, Louisiana, United States
26.4 miles East bearing 79° from Bossier City, Bossier Parish, Louisiana, United States
27.3 miles East bearing 81° from Shreveport, Caddo Parish, Louisiana, United States
Last position: 2021-06-12 01:51:51 EDT (2d 8h46m ago)
2021-06-12 00:51:51 CDT local time at Minden, United States [?]
Altitude: 164 ft
Course: 281°
Speed: 75 MPH
Device: Yaesu: FTM-400DR (rig)
Last path: NQ9F>SRSU3P via WIDE1,KD5QZD-7,WIDE2*,qAR,W5UOK-10 (good)
Positions stored: 2429
Packet rate: 164 seconds between packets on average during 3597 seconds.
Stations near current position of NQ9F - show more
callsign distance last heard - EDT      callsign distance last heard - EDT
KC5SAZ-41.2 miles 340°2021-05-28 16:40:10 K5ROK-42.5 miles 24°2021-06-04 16:50:27
K5APB2.9 miles 26°2021-06-14 08:51:59 K5ROK3.2 miles 17°2021-06-14 10:33:38
FW88993.7 miles 30°2021-06-14 10:34:20 KC5EIB-14.2 miles 268°2021-06-14 10:31:30
KC5SAZ5.3 miles 38°2021-06-07 18:13:28 KC5SAZ-55.3 miles 38°2021-05-20 19:48:59
KC5SAZ-95.5 miles 38°2021-06-08 16:15:11 W5CFI5.5 miles 339°2021-05-20 14:59:06
N5MAD C6.0 miles 24°2021-06-14 10:31:29 N5MAD-C6.0 miles 24°2021-06-14 10:31:14
N5MAD B6.0 miles 24°2021-06-14 10:31:29 N5MAD-B6.0 miles 24°2021-06-14 10:31:14
W5SLY-C14.2 miles 258°2021-06-14 10:20:56 W5SLY C14.2 miles 258°2021-06-14 10:21:11
SHVSVRKDA14.2 miles 276°2021-06-07 17:05:06 SHVSVRL1A17.8 miles 54°2021-06-07 17:49:07
FW217018.4 miles 267°2021-06-14 10:31:21 K5ROK-120.2 miles 118°2021-06-14 10:33:08
Stations which heard NQ9F directly on radio –
callsign pkts first heard - EDT last heard longest (tx => rx) longest at - EDT
W5MRC-15 1 2021-06-04 07:18:27 2021-06-04 07:18:27 EM12SR > EM13RG 37.5 miles 350° 2021-06-04 07:18:27
N1HQ 3 2021-06-10 20:17:09 2021-06-10 20:37:30 EM70BE > EM70DE 9.8 miles 94° 2021-06-10 20:17:09
WB5QLD 2 2021-06-04 06:22:48 2021-06-04 06:31:10 EM12IV > EM12JU 8.5 miles 114° 2021-06-04 06:22:48
KK5PP-3 1 2021-06-04 07:14:27 2021-06-04 07:14:27 EM12RS > EM12SW 12.8 miles 29° 2021-06-04 07:14:27
K5FTW-5 2 2021-06-04 06:10:42 2021-06-04 06:14:25 EM13GB > EM12IR 25.4 miles 159° 2021-06-04 06:10:42
W5NGU-3 2 2021-06-04 06:37:15 2021-06-04 06:41:30 EM12JS > EM13KF 32.6 miles 8° 2021-06-04 06:37:15
W5DCR-3 5 2021-06-04 06:55:10 2021-06-04 07:02:24 EM12PT > EM12OS 4.3 miles 261° 2021-06-04 07:02:24
W5NGU-4 9 2021-06-04 05:49:02 2021-06-04 07:07:02 EM12QT > EM13HL 64.4 miles 316° 2021-06-04 07:07:02
KS5S 3 2021-06-04 06:26:41 2021-06-04 06:36:44 EM12JT > EM12HK 29.2 miles 197° 2021-06-04 06:32:24
KD5KNR 1 2021-06-04 06:39:29 2021-06-04 06:39:29 EM12KS > EM12KU 5.3 miles 12° 2021-06-04 06:39:29
W5MCT-2 5 2021-06-04 07:51:22 2021-06-04 08:09:23 EM22CN > EM22GL 19.1 miles 103° 2021-06-04 07:51:22
K5TYR-10 13 2021-06-04 07:55:22 2021-06-04 08:55:44 EM22TL > EM22HG 60.7 miles 255° 2021-06-04 08:55:44
KD5QZD-7 10 2021-06-04 08:59:45 2021-06-04 09:28:56 EM22UL > EM32BK 24.6 miles 96° 2021-06-04 08:59:45
AB5XS-10 1 2021-06-04 06:29:42 2021-06-04 06:29:42 EM12IU > EM12JU 4.9 miles 89° 2021-06-04 06:29:42
WA0D 3 2021-06-04 06:35:36 2021-06-04 06:56:45 EM12OS > EM12KW 23.2 miles 302° 2021-06-04 06:56:45
KC5DR-5 6 2021-06-12 00:51:54 2021-06-12 01:01:10 EM32XL > EM32VL 7.1 miles 271° 2021-06-12 00:51:54
K5ROK-1 1 2021-06-12 01:33:48 2021-06-12 01:33:48 EM32NN > EM32MK 9.0 miles 210° 2021-06-12 01:33:48
KQ5T-5 11 2021-06-12 01:07:11 2021-06-12 01:31:47 EM32TM > EM32QM 18.0 miles 272° 2021-06-12 01:07:11
W5KGT-1 2 2021-06-12 01:03:13 2021-06-12 01:09:15 EM32TM > EM32UN 4.6 miles 66° 2021-06-12 01:09:15
KF5BYG-10 1 2021-06-04 06:27:12 2021-06-04 06:27:12 EM12IU > EM12IN 18.2 miles 171° 2021-06-04 06:27:12
AC5V 1 2021-06-04 05:51:35 2021-06-04 05:51:35 EM13EC > EM12EX 6.7 miles 188° 2021-06-04 05:51:35
KC5AKB 9 2021-06-04 06:00:21 2021-06-04 07:08:24 EM12QT > EM12HH 56.0 miles 232° 2021-06-04 07:08:24
KL7BX-10 5 2021-06-04 08:24:48 2021-06-04 08:43:34 EM22LK > EM22QJ 23.7 miles 101° 2021-06-04 08:24:48
KD4C-10 3 2021-06-04 06:58:55 2021-06-04 07:10:24 EM12QT > EM12PW 13.3 miles 325° 2021-06-04 07:10:24
KG5JPL-1 1 2021-06-04 07:09:53 2021-06-04 07:09:53 EM12QT > EM12PW 9.3 miles 341° 2021-06-04 07:09:53
KD5KJZ-10 7 2021-06-04 07:29:19 2021-06-04 07:45:21 EM12VQ > EM22BM 23.1 miles 122° 2021-06-04 07:29:19
KB5MAR-10 1 2021-06-04 08:57:45 2021-06-04 08:57:45 EM22UL > EM22UN 3.7 miles 346° 2021-06-04 08:57:45
AC0TG 1 2021-06-04 07:39:21 2021-06-04 07:39:21 EM12XP > EM13XD 35.0 miles 2° 2021-06-04 07:39:21
W5TWM-1 1 2021-06-04 08:47:36 2021-06-04 08:47:36 EM22RL > EM22ON 14.7 miles 289° 2021-06-04 08:47:36

Only position packets which were originated by the station are shown here. The range statistics show some extra long hops, because some digipeaters do not correctly add themselves to the digipeater path. Please check the raw packets.
About this site
This page shows real-time information collected from the Automatic Position Reporting System Internet network (APRS-IS). APRS is used by amateur (ham) radio operators to transmit real-time position information, weather data, telemetry and messages over the radio. A vehicle equipped with a GPS receiver, a VHF transmitter or HF transceiver and a small computer device called a tracker transmits it's location, speed and course in a small data packet, which is then received by a nearby iGate receiving site which forwards the packet on the Internet. Systems connected to the Internet can send information on the APRS-IS without a radio transmitter, or collect and display information transmitted anywhere in the world.
User guide · FAQ · Blog · Discussion group · Linking to aprs.fi · AIS sites · Service status · Database statistics · Advertising on aprs.fi · Technical details · API · Change log · Planned changes · Credits and thanks · Terms Of Service · iPhone/iPad APRS